Time;durP1;ratioP1;P1;durP2;ratioP2;P2;SDS_P1;SDS_P2;PMS_P1;PMS_P2;Temp;Humidity;BMP_temperature;BMP_pressure;BME280_temperature;BME280_humidity;BME280_pressure;Samples;Min_cycle;Max_cycle;Signal;HPM_P1;HPM_P2
2021/12/18 00:01:05;;;;;;;24.98;10.23;;;7.30;99.90;;;;;;4966704;28;20042;-82
2021/12/18 00:03:31;;;;;;;21.25;9.55;;;7.30;99.90;;;;;;4981658;28;20057;-82
2021/12/18 00:05:58;;;;;;;21.75;8.88;;;7.30;99.90;;;;;;4965435;28;20540;-82
2021/12/18 00:08:24;;;;;;;18.50;8.80;;;7.20;99.90;;;;;;4964718;28;20045;-82
2021/12/18 00:10:53;;;;;;;16.55;8.05;;;7.20;99.90;;;;;;4951177;29;20091;-82
2021/12/18 00:13:19;;;;;;;18.27;8.15;;;7.30;99.90;;;;;;4931708;29;20055;-82
2021/12/18 00:15:45;;;;;;;17.50;8.20;;;7.20;99.90;;;;;;4959188;29;20078;-81
2021/12/18 00:18:11;;;;;;;18.13;8.15;;;7.20;99.90;;;;;;4943875;29;20051;-82
2021/12/18 00:20:38;;;;;;;16.35;8.45;;;7.20;99.90;;;;;;4935853;29;20042;-82
2021/12/18 00:23:04;;;;;;;18.95;7.45;;;7.20;99.90;;;;;;4937389;29;20039;-82
2021/12/18 00:25:30;;;;;;;19.65;7.68;;;7.20;99.90;;;;;;4956892;29;20043;-82
2021/12/18 00:27:56;;;;;;;14.85;7.38;;;7.20;99.90;;;;;;4947440;29;20042;-82
2021/12/18 00:30:22;;;;;;;18.90;7.70;;;7.20;99.90;;;;;;4942908;29;20074;-82
2021/12/18 00:32:48;;;;;;;17.88;7.82;;;7.20;99.90;;;;;;4926814;29;20043;-82
2021/12/18 00:35:14;;;;;;;19.55;7.63;;;7.20;99.90;;;;;;4940550;29;20047;-82
2021/12/18 00:37:40;;;;;;;17.52;7.95;;;7.10;99.90;;;;;;4958801;29;20047;-82
2021/12/18 00:40:11;;;;;;;26.48;8.60;;;7.10;99.90;;;;;;4939721;29;20043;-82
2021/12/18 00:45:05;;;;;;;31.52;7.90;;;7.10;99.90;;;;;;4957623;29;20078;-82
2021/12/18 00:47:31;;;;;;;23.33;7.57;;;7.10;99.90;;;;;;4957916;29;20077;-82
2021/12/18 00:49:56;;;;;;;39.83;8.85;;;7.10;99.90;;;;;;4939940;29;20044;-82
2021/12/18 00:52:23;;;;;;;30.60;8.88;;;7.10;99.90;;;;;;4934946;29;20082;-82
2021/12/18 00:54:49;;;;;;;31.02;8.90;;;7.00;99.90;;;;;;4941700;29;20506;-82
2021/12/18 00:57:15;;;;;;;37.75;8.98;;;7.00;99.90;;;;;;4957137;29;20109;-82
2021/12/18 00:59:40;;;;;;;45.72;10.60;;;7.10;99.90;;;;;;4940217;29;20055;-82
2021/12/18 01:02:07;;;;;;;34.10;9.85;;;7.10;99.90;;;;;;4957598;29;20047;-82
2021/12/18 01:04:32;;;;;;;39.47;10.23;;;7.10;99.90;;;;;;4945892;29;20039;-82
2021/12/18 01:06:58;;;;;;;35.20;10.10;;;7.10;99.90;;;;;;4939730;29;20044;-82
2021/12/18 01:09:40;;;;;;;29.27;9.52;;;7.10;99.90;;;;;;4947133;28;20058;-82
2021/12/18 01:12:07;;;;;;;;;;;7.10;99.90;;;;;;4980267;28;20125;-82
2021/12/18 01:25:04;;;;;;;26.33;8.57;;;7.00;99.90;;;;;;4966745;28;20042;-81
2021/12/18 01:27:30;;;;;;;32.03;8.48;;;7.00;99.90;;;;;;4981099;28;20093;-81
2021/12/18 01:29:56;;;;;;;31.88;8.23;;;7.00;99.90;;;;;;4984094;28;20042;-81
2021/12/18 01:32:23;;;;;;;34.70;8.25;;;7.00;99.90;;;;;;4984094;28;20126;-81
2021/12/18 01:34:49;;;;;;;20.38;8.20;;;7.00;99.90;;;;;;4967834;28;20081;-81
2021/12/18 01:37:15;;;;;;;20.20;7.93;;;6.90;99.90;;;;;;4967830;28;20049;-81
2021/12/18 01:39:41;;;;;;;27.00;7.15;;;7.00;99.90;;;;;;4965483;28;20047;-81
2021/12/18 01:52:40;;;;;;;27.23;5.93;;;6.90;99.90;;;;;;4966684;28;20122;-81
2021/12/18 01:55:08;;;;;;;26.45;5.65;;;6.90;99.90;;;;;;4966923;28;20046;-81
2021/12/18 01:57:33;;;;;;;16.38;5.90;;;6.90;99.90;;;;;;4967883;28;20129;-81
2021/12/18 01:59:59;;;;;;;15.73;5.63;;;6.90;99.90;;;;;;4970347;28;20081;-81
2021/12/18 02:02:25;;;;;;;14.55;5.03;;;6.80;99.90;;;;;;4967189;28;20038;-82
2021/12/18 02:04:51;;;;;;;12.13;4.95;;;6.90;99.90;;;;;;4982337;28;20133;-82
2021/12/18 02:07:17;;;;;;;9.32;4.57;;;6.80;99.90;;;;;;4973975;28;20038;-82
2021/12/18 02:12:14;;;;;;;10.20;4.20;;;6.80;99.90;;;;;;4982303;28;20049;-82
2021/12/18 02:22:59;;;;;;;10.15;3.97;;;6.70;99.90;;;;;;4983537;28;20043;-82
2021/12/18 02:25:25;;;;;;;11.27;3.80;;;6.70;99.90;;;;;;4976510;28;20046;-82
2021/12/18 02:27:52;;;;;;;9.55;4.15;;;6.80;99.90;;;;;;4966435;28;20112;-82
2021/12/18 02:30:22;;;;;;;15.55;3.90;;;6.70;99.90;;;;;;4965271;28;20077;-82
2021/12/18 02:32:49;;;;;;;9.95;3.47;;;6.80;99.90;;;;;;4978380;28;20070;-82
2021/12/18 02:35:42;;;;;;;12.07;4.13;;;6.70;99.90;;;;;;4978714;28;20042;-82
2021/12/18 02:38:21;;;;;;;13.07;4.20;;;6.70;99.90;;;;;;4974631;28;20042;-82
2021/12/18 02:43:34;;;;;;;11.65;3.97;;;6.70;99.90;;;;;;4983548;28;20050;-82
2021/12/18 02:46:06;;;;;;;12.27;3.97;;;6.70;99.90;;;;;;4980925;28;20038;-82
2021/12/18 02:48:34;;;;;;;14.82;4.15;;;6.60;99.90;;;;;;4965312;28;20038;-82
2021/12/18 02:51:00;;;;;;;13.38;3.63;;;6.60;99.90;;;;;;4982316;28;20046;-82
2021/12/18 02:53:27;;;;;;;10.93;3.85;;;6.60;99.90;;;;;;4979136;28;20085;-82
2021/12/18 02:56:05;;;;;;;11.63;3.75;;;6.60;99.90;;;;;;4988204;28;20046;-82
2021/12/18 02:58:45;;;;;;;10.05;3.75;;;6.60;99.90;;;;;;4982570;28;20050;-82
2021/12/18 03:01:16;;;;;;;11.55;3.90;;;6.60;99.90;;;;;;4976081;28;20054;-82
2021/12/18 03:03:43;;;;;;;11.00;4.05;;;6.70;99.90;;;;;;4979135;28;20414;-82
2021/12/18 03:08:58;;;;;;;7.00;3.05;;;6.60;99.90;;;;;;4968422;28;20493;-82
2021/12/18 03:25:03;;;;;;;10.80;3.15;;;6.60;99.90;;;;;;4967254;28;20054;-82
2021/12/18 03:27:29;;;;;;;10.18;2.85;;;6.50;99.90;;;;;;4977227;28;20039;-82
2021/12/18 03:29:55;;;;;;;10.45;2.78;;;6.50;99.90;;;;;;4974174;28;20057;-82
2021/12/18 03:32:23;;;;;;;9.70;2.88;;;6.50;99.90;;;;;;4966545;28;20038;-82
2021/12/18 03:34:50;;;;;;;9.77;3.00;;;6.50;99.90;;;;;;4975704;28;20173;-82
2021/12/18 03:37:16;;;;;;;11.60;3.10;;;6.50;99.90;;;;;;4979748;28;20043;-82
2021/12/18 03:39:43;;;;;;;12.20;3.17;;;6.60;99.90;;;;;;4979005;28;20061;-82
2021/12/18 03:42:08;;;;;;;8.05;2.92;;;6.50;99.90;;;;;;4979258;28;20098;-81
2021/12/18 03:44:35;;;;;;;7.32;2.83;;;6.40;99.90;;;;;;4979477;28;20121;-81
2021/12/18 03:47:01;;;;;;;8.40;3.00;;;6.50;99.90;;;;;;4973159;28;20522;-81
2021/12/18 03:49:27;;;;;;;7.63;2.42;;;6.40;99.90;;;;;;4964727;28;20046;-81
2021/12/18 03:51:53;;;;;;;6.55;2.05;;;6.40;99.90;;;;;;4962988;28;20046;-81
2021/12/18 03:54:19;;;;;;;6.57;2.25;;;6.40;99.90;;;;;;4967291;28;20050;-81
2021/12/18 03:56:44;;;;;;;7.68;2.10;;;6.40;99.90;;;;;;4978381;28;20072;-82
2021/12/18 03:59:10;;;;;;;6.75;2.10;;;6.40;99.90;;;;;;4981326;28;20038;-82
2021/12/18 04:01:36;;;;;;;8.07;2.20;;;6.40;99.90;;;;;;4965417;28;20034;-82
2021/12/18 04:04:02;;;;;;;7.57;2.30;;;6.40;99.90;;;;;;4981306;28;20042;-82
2021/12/18 04:06:28;;;;;;;7.85;2.35;;;6.30;99.90;;;;;;4963259;28;20042;-82
2021/12/18 04:08:54;;;;;;;8.05;2.10;;;6.30;99.90;;;;;;4963993;28;20043;-82
2021/12/18 04:11:20;;;;;;;7.60;2.30;;;6.40;99.90;;;;;;4964655;28;20062;-82
2021/12/18 04:13:47;;;;;;;10.07;2.50;;;6.30;99.90;;;;;;4962591;28;20141;-82
2021/12/18 04:16:14;;;;;;;9.20;2.00;;;6.30;99.90;;;;;;4987050;28;20047;-82
2021/12/18 04:18:40;;;;;;;7.20;2.20;;;6.30;99.90;;;;;;4976375;28;20042;-82
2021/12/18 04:21:07;;;;;;;7.50;2.60;;;6.30;99.90;;;;;;4963099;28;20046;-82
2021/12/18 04:23:32;;;;;;;8.48;2.60;;;6.40;99.90;;;;;;4949186;28;20096;-82
2021/12/18 04:25:58;;;;;;;9.65;2.70;;;6.30;99.90;;;;;;4979109;28;20035;-82
2021/12/18 04:28:25;;;;;;;8.15;2.50;;;6.30;99.90;;;;;;4980975;28;20070;-82
2021/12/18 04:30:51;;;;;;;7.85;2.60;;;6.40;99.90;;;;;;4980608;28;20069;-81
2021/12/18 04:33:17;;;;;;;10.38;2.60;;;6.30;99.90;;;;;;4981045;28;21063;-81
2021/12/18 04:35:43;;;;;;;8.00;2.50;;;6.20;99.90;;;;;;4962480;28;20046;-81
2021/12/18 04:38:09;;;;;;;8.45;2.38;;;6.20;99.90;;;;;;4992629;28;20513;-81
2021/12/18 04:40:35;;;;;;;9.30;2.42;;;6.30;99.90;;;;;;4963272;28;20043;-81
2021/12/18 04:43:02;;;;;;;9.30;2.67;;;6.30;99.90;;;;;;4980532;28;20113;-81
2021/12/18 04:45:29;;;;;;;8.02;2.55;;;6.30;99.90;;;;;;4975001;28;20049;-81
2021/12/18 04:47:55;;;;;;;11.55;2.85;;;6.20;99.90;;;;;;4980625;28;20069;-81
2021/12/18 04:50:21;;;;;;;9.52;2.78;;;6.20;99.90;;;;;;4979428;28;20080;-81
2021/12/18 04:52:46;;;;;;;9.50;2.55;;;6.10;99.90;;;;;;4963681;28;20424;-81
2021/12/18 04:55:12;;;;;;;10.32;2.78;;;6.20;99.90;;;;;;4972477;28;20046;-81
2021/12/18 04:57:38;;;;;;;11.10;3.20;;;6.20;99.90;;;;;;4974219;28;20042;-81
2021/12/18 05:00:08;;;;;;;12.40;3.22;;;6.20;99.90;;;;;;4964279;28;20053;-81
2021/12/18 05:02:40;;;;;;;12.93;3.20;;;6.20;99.90;;;;;;4996495;28;20038;-81
2021/12/18 05:05:07;;;;;;;10.60;3.20;;;6.20;99.90;;;;;;4976242;28;20035;-81
2021/12/18 05:07:33;;;;;;;11.32;3.30;;;6.20;99.90;;;;;;4964347;28;20043;-81
2021/12/18 05:09:59;;;;;;;11.15;3.03;;;6.20;99.90;;;;;;4980096;28;20058;-81
2021/12/18 05:12:25;;;;;;;10.00;2.97;;;6.20;99.90;;;;;;4977951;28;20418;-81
2021/12/18 05:14:50;;;;;;;10.75;3.30;;;6.10;99.90;;;;;;4963249;28;20112;-81
2021/12/18 05:17:16;;;;;;;11.27;3.42;;;6.20;99.90;;;;;;4974921;28;20410;-81
2021/12/18 05:19:42;;;;;;;13.40;3.50;;;6.20;99.90;;;;;;4978473;28;20038;-81
2021/12/18 05:22:08;;;;;;;11.40;3.03;;;6.20;99.90;;;;;;4964052;28;20065;-81
2021/12/18 05:24:35;;;;;;;12.40;3.33;;;6.20;99.90;;;;;;4976632;28;20051;-81
2021/12/18 05:27:01;;;;;;;11.15;3.45;;;6.20;99.90;;;;;;4963072;28;20043;-81
2021/12/18 05:29:26;;;;;;;15.02;3.50;;;6.20;99.90;;;;;;4972383;28;20042;-81
2021/12/18 05:31:52;;;;;;;11.00;3.80;;;6.20;99.90;;;;;;4947874;28;20042;-81
2021/12/18 05:34:23;;;;;;;12.38;3.60;;;6.20;99.90;;;;;;4963235;28;20557;-81
2021/12/18 05:39:22;;;;;;;11.68;3.60;;;6.30;99.90;;;;;;4979861;28;20453;-81
2021/12/18 05:41:50;;;;;;;10.18;3.20;;;6.30;99.90;;;;;;4974932;28;20493;-81
2021/12/18 05:44:18;;;;;;;11.40;3.42;;;6.30;99.90;;;;;;4979881;28;20073;-81
2021/12/18 05:46:44;;;;;;;10.45;3.15;;;6.30;99.90;;;;;;4974825;28;20038;-81
2021/12/18 05:49:11;;;;;;;10.85;3.33;;;6.30;99.90;;;;;;4961756;28;20039;-81
2021/12/18 05:51:37;;;;;;;10.38;3.20;;;6.30;99.90;;;;;;4963387;28;20112;-81
2021/12/18 05:54:03;;;;;;;9.02;3.00;;;6.30;99.90;;;;;;4979396;28;20061;-81
2021/12/18 05:56:29;;;;;;;10.10;3.72;;;6.30;99.90;;;;;;4974018;28;20042;-81
2021/12/18 05:58:55;;;;;;;10.07;3.10;;;6.40;99.90;;;;;;4947525;28;20411;-81
2021/12/18 06:01:21;;;;;;;12.50;3.42;;;6.40;99.90;;;;;;4973198;28;20556;-81
2021/12/18 06:03:47;;;;;;;11.98;3.45;;;6.40;99.90;;;;;;4966685;28;20043;-81
2021/12/18 06:06:13;;;;;;;11.82;3.47;;;6.40;99.90;;;;;;4965077;28;20058;-81
2021/12/18 06:08:42;;;;;;;10.50;3.40;;;6.40;99.90;;;;;;4966995;28;20045;-81
2021/12/18 06:11:13;;;;;;;12.60;3.97;;;6.40;99.90;;;;;;4966505;28;20568;-82
2021/12/18 06:13:40;;;;;;;10.95;3.40;;;6.40;99.90;;;;;;4977211;28;20047;-82
2021/12/18 06:16:06;;;;;;;11.02;3.72;;;6.40;99.90;;;;;;4982913;28;20042;-82
2021/12/18 06:18:40;;;;;;;10.27;3.20;;;6.40;99.90;;;;;;4967719;28;20046;-82
2021/12/18 06:21:06;;;;;;;9.63;3.42;;;6.40;99.90;;;;;;4980362;28;20046;-82
2021/12/18 06:23:32;;;;;;;11.57;3.42;;;6.40;99.90;;;;;;4966486;28;20035;-82
2021/12/18 06:25:58;;;;;;;10.07;3.55;;;6.40;99.90;;;;;;4950806;28;20069;-82
2021/12/18 06:28:23;;;;;;;18.10;3.78;;;6.40;99.90;;;;;;4983807;28;20386;-82
2021/12/18 06:30:49;;;;;;;14.15;3.67;;;6.40;99.90;;;;;;4966329;28;20043;-82
2021/12/18 06:33:16;;;;;;;10.60;3.50;;;6.40;99.90;;;;;;4966290;28;20450;-81
2021/12/18 06:35:42;;;;;;;13.95;3.72;;;6.50;99.90;;;;;;4980688;28;20088;-81
2021/12/18 06:38:07;;;;;;;13.70;3.53;;;6.40;99.90;;;;;;4966748;28;20046;-81
2021/12/18 06:40:35;;;;;;;11.63;3.30;;;6.40;99.90;;;;;;4966225;28;20572;-82
2021/12/18 06:43:01;;;;;;;10.93;3.72;;;6.40;99.90;;;;;;4982766;28;20076;-82
2021/12/18 06:45:27;;;;;;;11.63;3.53;;;6.50;99.90;;;;;;4997098;28;20035;-82
2021/12/18 06:47:54;;;;;;;10.23;3.30;;;6.40;99.90;;;;;;4966354;28;20065;-82
2021/12/18 06:50:20;;;;;;;10.50;4.00;;;6.40;99.90;;;;;;4980656;28;20046;-82
2021/12/18 06:52:46;;;;;;;10.35;3.72;;;6.50;99.90;;;;;;4982624;28;20042;-82
2021/12/18 06:55:12;;;;;;;12.15;3.97;;;6.40;99.90;;;;;;4965164;28;20049;-82
2021/12/18 06:57:38;;;;;;;14.00;4.50;;;6.40;99.90;;;;;;4974198;28;20091;-81
2021/12/18 07:00:07;;;;;;;10.60;3.90;;;6.40;99.90;;;;;;4983228;28;20042;-81
2021/12/18 07:02:33;;;;;;;11.40;4.00;;;6.50;99.90;;;;;;4975713;28;20446;-81
2021/12/18 07:04:58;;;;;;;10.73;3.75;;;6.40;99.90;;;;;;4965829;28;20034;-81
2021/12/18 07:07:24;;;;;;;10.75;3.28;;;6.50;99.90;;;;;;4965709;28;20494;-81
2021/12/18 07:09:50;;;;;;;14.18;3.75;;;6.50;99.90;;;;;;4980876;28;20057;-82
2021/12/18 07:12:16;;;;;;;13.55;3.80;;;6.50;99.90;;;;;;4964767;28;20045;-82
2021/12/18 07:14:42;;;;;;;15.35;3.78;;;6.50;99.90;;;;;;4964646;28;20034;-82
2021/12/18 07:17:08;;;;;;;18.55;3.70;;;6.50;99.90;;;;;;4968113;28;20042;-82
2021/12/18 07:19:34;;;;;;;15.65;3.90;;;6.40;99.90;;;;;;4996419;28;20490;-82
2021/12/18 07:22:00;;;;;;;12.02;3.20;;;6.50;99.90;;;;;;4964920;28;20056;-82
2021/12/18 07:24:25;;;;;;;13.15;3.22;;;6.50;99.90;;;;;;4954348;28;20038;-82
2021/12/18 07:26:51;;;;;;;22.58;3.80;;;6.50;99.90;;;;;;4979586;28;20041;-82
2021/12/18 07:29:17;;;;;;;13.65;3.30;;;6.50;99.90;;;;;;4964701;28;20034;-82
2021/12/18 07:31:43;;;;;;;15.60;3.40;;;6.50;99.90;;;;;;4964580;28;20402;-82
2021/12/18 07:34:08;;;;;;;17.17;3.85;;;6.40;99.90;;;;;;4966800;28;20044;-82
2021/12/18 07:36:34;;;;;;;11.80;3.40;;;6.50;99.90;;;;;;4995760;28;20042;-82
2021/12/18 07:39:00;;;;;;;10.57;3.45;;;6.50;99.90;;;;;;4962803;28;20102;-81
2021/12/18 07:41:26;;;;;;;12.25;3.30;;;6.50;99.90;;;;;;4969635;28;20042;-81
2021/12/18 07:43:52;;;;;;;12.00;3.47;;;6.50;99.90;;;;;;4962775;28;20031;-81
2021/12/18 07:46:17;;;;;;;11.18;3.15;;;6.50;99.90;;;;;;4950155;28;20046;-81
2021/12/18 07:48:45;;;;;;;11.95;3.38;;;6.50;99.90;;;;;;4960324;28;20434;-81
2021/12/18 07:51:11;;;;;;;14.27;3.63;;;6.50;99.90;;;;;;4968542;28;20502;-81
2021/12/18 07:53:37;;;;;;;10.48;3.03;;;6.50;99.90;;;;;;4992475;28;20399;-81
2021/12/18 07:56:04;;;;;;;8.57;3.00;;;6.50;99.90;;;;;;4993124;28;20072;-82
2021/12/18 07:58:31;;;;;;;11.63;3.22;;;6.50;99.90;;;;;;4976204;28;20034;-82
2021/12/18 08:00:57;;;;;;;12.65;3.47;;;6.50;99.90;;;;;;4962681;28;20049;-82
2021/12/18 08:03:23;;;;;;;11.18;3.50;;;6.50;99.90;;;;;;5002792;23;20049;-81
2021/12/18 08:05:49;;;;;;;14.25;3.90;;;6.50;99.90;;;;;;4965119;28;20172;-81
2021/12/18 08:08:14;;;;;;;13.10;3.83;;;6.70;99.90;;;;;;4984676;28;20030;-82
2021/12/18 08:10:40;;;;;;;14.15;3.88;;;6.60;99.90;;;;;;4998211;28;20046;-81
2021/12/18 08:13:06;;;;;;;15.02;4.10;;;6.60;99.90;;;;;;4983555;28;20125;-81
2021/12/18 08:15:32;;;;;;;14.65;4.18;;;6.60;99.90;;;;;;4982489;28;20048;-81
2021/12/18 08:17:58;;;;;;;22.65;4.88;;;6.60;99.90;;;;;;4985674;28;20060;-82
2021/12/18 08:20:26;;;;;;;14.35;4.35;;;6.60;99.90;;;;;;4987894;28;20046;-81
2021/12/18 08:22:52;;;;;;;21.30;5.22;;;6.60;99.90;;;;;;4964148;28;20502;-81
2021/12/18 08:25:18;;;;;;;14.07;4.50;;;6.60;99.90;;;;;;4977529;28;20076;-81
2021/12/18 08:27:43;;;;;;;12.15;4.25;;;6.60;99.90;;;;;;4979021;28;20069;-81
2021/12/18 08:30:11;;;;;;;15.75;4.88;;;6.70;99.90;;;;;;4989713;28;20442;-81
2021/12/18 08:32:40;;;;;;;19.25;6.05;;;6.60;99.90;;;;;;4986784;28;20415;-81
2021/12/18 08:35:07;;;;;;;15.52;5.68;;;6.70;99.90;;;;;;4992333;28;20057;-81
2021/12/18 08:37:33;;;;;;;17.17;5.55;;;6.70;99.90;;;;;;4967345;28;20046;-82
2021/12/18 08:39:58;;;;;;;14.82;5.18;;;6.70;99.90;;;;;;4982310;28;20494;-82
2021/12/18 08:42:25;;;;;;;20.35;5.70;;;6.80;99.90;;;;;;4979777;28;20048;-81
2021/12/18 08:44:51;;;;;;;20.52;5.68;;;6.80;99.90;;;;;;4993252;28;20129;-81
2021/12/18 08:47:18;;;;;;;15.50;5.35;;;6.80;99.90;;;;;;5029924;28;20116;-81
2021/12/18 08:49:44;;;;;;;15.73;5.40;;;6.80;99.90;;;;;;4987005;28;20041;-81
2021/12/18 08:52:10;;;;;;;19.27;5.85;;;6.80;99.90;;;;;;4998249;28;20137;-81
2021/12/18 08:54:35;;;;;;;18.65;5.88;;;6.80;99.90;;;;;;5001491;28;20485;-81
2021/12/18 08:57:02;;;;;;;16.10;6.03;;;6.80;99.90;;;;;;4978158;28;20144;-81
2021/12/18 08:59:27;;;;;;;19.17;6.38;;;6.80;99.90;;;;;;4977209;28;20523;-81
2021/12/18 09:01:53;;;;;;;23.95;7.03;;;6.80;99.90;;;;;;4974610;28;20038;-81
2021/12/18 09:04:19;;;;;;;22.35;6.55;;;6.90;99.90;;;;;;5009108;28;20041;-81
2021/12/18 09:06:45;;;;;;;19.67;6.55;;;6.90;99.90;;;;;;4965596;28;20117;-81
2021/12/18 09:09:10;;;;;;;18.67;6.50;;;7.00;99.90;;;;;;4962084;28;20125;-81
2021/12/18 09:11:36;;;;;;;21.95;7.22;;;7.00;99.90;;;;;;4999489;28;20034;-81
2021/12/18 09:14:02;;;;;;;19.38;7.38;;;7.00;99.90;;;;;;4964134;28;20482;-81
2021/12/18 09:16:31;;;;;;;23.05;7.80;;;7.00;99.90;;;;;;4992356;28;20046;-81
2021/12/18 09:18:57;;;;;;;20.02;7.82;;;7.00;99.90;;;;;;4987757;28;20060;-81
2021/12/18 09:21:23;;;;;;;22.88;8.23;;;7.10;99.90;;;;;;4982513;28;20042;-81
2021/12/18 09:23:49;;;;;;;24.35;8.45;;;7.10;99.90;;;;;;5003087;28;20467;-82
2021/12/18 09:26:15;;;;;;;20.80;7.93;;;7.10;99.90;;;;;;4964513;28;20041;-81
2021/12/18 09:28:41;;;;;;;23.85;8.57;;;7.10;99.90;;;;;;4984691;28;20042;-82
2021/12/18 09:31:06;;;;;;;25.08;8.38;;;7.20;99.90;;;;;;4971348;28;20045;-81
2021/12/18 09:33:32;;;;;;;23.77;8.93;;;7.20;99.90;;;;;;4986396;28;20504;-81
2021/12/18 09:35:58;;;;;;;21.48;9.02;;;7.30;99.90;;;;;;4984990;28;20046;-81
2021/12/18 09:38:24;;;;;;;23.60;10.10;;;7.30;99.90;;;;;;5004877;28;20049;-81
2021/12/18 09:40:50;;;;;;;26.83;9.73;;;7.30;99.90;;;;;;4986297;28;20148;-81
2021/12/18 09:43:15;;;;;;;26.23;8.52;;;7.30;99.90;;;;;;4992278;28;20401;-81
2021/12/18 09:45:43;;;;;;;22.63;9.30;;;7.40;99.90;;;;;;5002075;28;20109;-82
2021/12/18 09:48:09;;;;;;;27.50;9.15;;;7.40;99.90;;;;;;4991665;28;20109;-81
2021/12/18 09:50:37;;;;;;;23.23;8.85;;;7.40;99.90;;;;;;5004553;28;20168;-81
2021/12/18 09:53:05;;;;;;;21.35;8.77;;;7.40;99.90;;;;;;5006907;28;20050;-81
2021/12/18 09:55:30;;;;;;;28.65;9.65;;;7.50;99.90;;;;;;5006904;28;20042;-82
2021/12/18 09:57:56;;;;;;;26.60;8.95;;;7.50;99.90;;;;;;4988994;28;20042;-82
2021/12/18 10:00:24;;;;;;;22.48;9.45;;;7.50;99.90;;;;;;5004073;28;20056;-81
2021/12/18 10:02:50;;;;;;;24.98;9.38;;;7.60;99.90;;;;;;5004709;28;20082;-81
2021/12/18 10:05:25;;;;;;;24.40;9.18;;;7.60;99.90;;;;;;4986166;28;20069;-82
2021/12/18 10:08:25;;;;;;;19.80;7.40;;;7.70;99.90;;;;;;5007388;28;20494;-81
2021/12/18 10:11:18;;;;;;;19.95;7.40;;;7.80;99.90;;;;;;4990009;28;20054;-81
2021/12/18 10:13:58;;;;;;;19.10;7.75;;;7.80;99.90;;;;;;4986115;28;20080;-81
2021/12/18 10:16:27;;;;;;;17.27;6.45;;;7.90;99.90;;;;;;5002423;28;20045;-82
2021/12/18 10:18:55;;;;;;;13.10;6.10;;;7.90;99.90;;;;;;5005493;28;20037;-81
2021/12/18 10:21:23;;;;;;;16.48;6.55;;;7.90;99.90;;;;;;5002443;28;20555;-82
2021/12/18 10:23:51;;;;;;;15.93;6.50;;;8.00;99.90;;;;;;5013689;28;20038;-81
2021/12/18 10:26:42;;;;;;;14.85;6.32;;;8.00;99.90;;;;;;5033663;28;20138;-82
2021/12/18 10:29:30;;;;;;;17.00;6.65;;;8.00;99.90;;;;;;4999328;28;20077;-81
2021/12/18 10:32:11;;;;;;;15.25;6.28;;;8.00;99.90;;;;;;4999774;28;20037;-81
2021/12/18 10:34:38;;;;;;;17.42;5.68;;;8.00;99.90;;;;;;5026791;28;20057;-82
2021/12/18 10:37:10;;;;;;;13.50;5.13;;;8.10;99.90;;;;;;4980109;28;20042;-81
2021/12/18 10:39:39;;;;;;;14.73;5.50;;;8.10;99.90;;;;;;4981022;28;20053;-81
2021/12/18 10:42:42;;;;;;;14.70;4.60;;;8.10;99.90;;;;;;5000614;28;20038;-81
2021/12/18 10:45:24;;;;;;;16.30;4.50;;;8.20;99.90;;;;;;4988064;28;20085;-81
2021/12/18 10:47:52;;;;;;;10.68;4.00;;;8.10;99.90;;;;;;4968328;28;20035;-81
2021/12/18 10:50:22;;;;;;;13.73;4.57;;;8.20;99.90;;;;;;5013793;28;20052;-80
2021/12/18 10:52:54;;;;;;;14.90;3.92;;;8.20;99.90;;;;;;4985055;28;20049;-81
2021/12/18 10:55:36;;;;;;;16.60;4.53;;;8.20;99.90;;;;;;5031016;28;20548;-81
2021/12/18 10:58:03;;;;;;;15.68;3.80;;;8.30;99.90;;;;;;4998223;28;20129;-81
2021/12/18 11:00:38;;;;;;;17.33;3.90;;;8.30;99.90;;;;;;4997503;28;20096;-81
2021/12/18 11:03:15;;;;;;;11.32;4.20;;;8.30;99.90;;;;;;4986864;28;20107;-82
2021/12/18 11:05:41;;;;;;;13.05;3.88;;;8.30;99.90;;;;;;4997858;28;20049;-81
2021/12/18 11:08:11;;;;;;;14.48;4.28;;;8.40;99.90;;;;;;4987417;28;20113;-81
2021/12/18 11:10:54;;;;;;;18.13;4.60;;;8.40;99.90;;;;;;4999111;28;20046;-81
2021/12/18 11:13:40;;;;;;;13.45;4.15;;;8.40;99.90;;;;;;5013605;28;20549;-81
2021/12/18 11:16:06;;;;;;;14.57;4.18;;;8.40;99.90;;;;;;5000716;28;20045;-82
2021/12/18 11:18:33;;;;;;;15.68;4.30;;;8.50;99.90;;;;;;4997752;28;20057;-82
2021/12/18 11:20:59;;;;;;;16.50;4.47;;;8.50;99.90;;;;;;4990200;28;20073;-81
2021/12/18 11:23:35;;;;;;;14.70;4.13;;;8.50;99.90;;;;;;4989578;28;20042;-81
2021/12/18 11:26:01;;;;;;;15.02;4.60;;;8.50;99.90;;;;;;4981781;28;20046;-81
2021/12/18 11:28:30;;;;;;;13.90;4.50;;;8.50;99.90;;;;;;4982383;28;20486;-81
2021/12/18 11:30:57;;;;;;;14.95;4.38;;;8.60;99.90;;;;;;4996928;28;20095;-81
2021/12/18 11:33:23;;;;;;;15.30;4.65;;;8.60;99.90;;;;;;5003925;28;20531;-81
2021/12/18 11:35:49;;;;;;;17.52;4.63;;;8.60;99.90;;;;;;4983424;28;20050;-81
2021/12/18 11:38:16;;;;;;;17.17;4.40;;;8.60;99.90;;;;;;4982683;28;20042;-81
2021/12/18 11:40:42;;;;;;;19.02;5.47;;;8.60;99.90;;;;;;4987646;28;20042;-81
2021/12/18 11:43:46;;;;;;;19.88;5.20;;;8.60;99.90;;;;;;5004127;28;20038;-81
2021/12/18 11:46:41;;;;;;;14.10;5.32;;;8.60;99.90;;;;;;4968867;28;20045;-81
2021/12/18 11:49:10;;;;;;;15.90;5.80;;;8.60;99.90;;;;;;5005063;28;20058;-81
2021/12/18 11:51:37;;;;;;;17.25;5.60;;;8.60;99.90;;;;;;4979936;28;20121;-81
2021/12/18 11:54:24;;;;;;;17.00;5.75;;;8.60;99.90;;;;;;5005301;28;20390;-81
2021/12/18 11:56:50;;;;;;;14.25;5.60;;;8.60;99.90;;;;;;4997394;28;20046;-81
2021/12/18 11:59:38;;;;;;;14.38;5.28;;;8.60;99.90;;;;;;4990550;28;20494;-81
2021/12/18 12:02:05;;;;;;;14.68;5.50;;;8.60;99.90;;;;;;4987905;28;20507;-81
2021/12/18 12:04:56;;;;;;;15.70;5.72;;;8.60;99.90;;;;;;4994804;28;20053;-81
2021/12/18 12:07:23;;;;;;;15.55;5.60;;;8.60;99.90;;;;;;4985166;28;20042;-81
2021/12/18 12:10:12;;;;;;;15.00;6.13;;;8.60;99.90;;;;;;4976439;28;20080;-81
2021/12/18 12:12:50;;;;;;;16.13;5.97;;;8.60;99.90;;;;;;4999472;28;20100;-82
2021/12/18 12:15:17;;;;;;;16.25;5.95;;;8.70;99.90;;;;;;4995834;28;20129;-81
2021/12/18 12:17:58;;;;;;;16.05;5.78;;;8.70;99.90;;;;;;4990464;28;20080;-81
2021/12/18 12:20:43;;;;;;;12.85;5.90;;;8.70;99.90;;;;;;5003602;28;20042;-81
2021/12/18 12:23:13;;;;;;;15.63;5.88;;;8.70;99.90;;;;;;5000309;28;20117;-82
2021/12/18 12:25:49;;;;;;;13.50;5.05;;;8.70;99.90;;;;;;4978402;28;20045;-81
2021/12/18 12:28:24;;;;;;;12.02;4.80;;;8.70;99.90;;;;;;4997941;28;20136;-81
2021/12/18 12:30:58;;;;;;;12.68;4.50;;;8.70;99.90;;;;;;4999910;28;20100;-81
2021/12/18 12:33:35;;;;;;;10.10;4.53;;;8.70;99.90;;;;;;4985383;28;20050;-81
2021/12/18 12:36:08;;;;;;;11.93;4.28;;;8.70;99.90;;;;;;4989562;28;20046;-81
2021/12/18 12:39:01;;;;;;;10.48;4.68;;;8.70;99.90;;;;;;4991163;28;20048;-81
2021/12/18 12:41:36;;;;;;;11.82;4.57;;;8.70;99.90;;;;;;4996891;28;20042;-81
2021/12/18 12:44:38;;;;;;;11.77;4.90;;;8.70;99.90;;;;;;4984195;28;20042;-81
2021/12/18 12:47:19;;;;;;;12.13;4.80;;;8.70;99.90;;;;;;5005151;28;20049;-81
2021/12/18 12:49:49;;;;;;;14.80;4.60;;;8.70;99.90;;;;;;4994841;28;20108;-81
2021/12/18 12:52:17;;;;;;;10.55;5.00;;;8.70;99.90;;;;;;5000461;28;20046;-81
2021/12/18 12:54:59;;;;;;;11.82;4.63;;;8.70;99.90;;;;;;5003386;28;20046;-82
2021/12/18 12:57:26;;;;;;;;;;;8.70;99.90;;;;;;4998749;28;20120;-81
2021/12/18 13:00:12;;;;;;;13.35;4.13;;;8.70;99.90;;;;;;4979590;28;19922;-81
2021/12/18 13:02:59;;;;;;;13.63;3.95;;;8.70;99.90;;;;;;5022879;28;20456;-81
2021/12/18 13:05:27;;;;;;;11.32;3.95;;;8.70;99.90;;;;;;4985373;28;20048;-81
2021/12/18 13:08:01;;;;;;;10.90;3.92;;;8.70;99.90;;;;;;4998261;28;20112;-81
2021/12/18 13:10:36;;;;;;;13.57;3.95;;;8.70;99.90;;;;;;4995592;28;20046;-81
2021/12/18 13:13:07;;;;;;;9.60;3.60;;;8.70;99.90;;;;;;5005649;28;20073;-81
2021/12/18 13:15:51;;;;;;;11.05;3.63;;;8.70;99.90;;;;;;5005509;28;20049;-82
2021/12/18 13:18:20;;;;;;;11.85;3.53;;;8.70;99.90;;;;;;5001138;28;20042;-81
2021/12/18 13:20:48;;;;;;;13.00;4.10;;;8.60;99.90;;;;;;5009655;28;20076;-82
2021/12/18 13:23:18;;;;;;;12.23;4.13;;;8.70;99.90;;;;;;4994431;28;20440;-81
2021/12/18 13:25:54;;;;;;;14.45;4.72;;;8.70;99.90;;;;;;4998759;28;20567;-81
2021/12/18 13:28:21;;;;;;;11.40;5.05;;;8.70;99.90;;;;;;4999947;28;20038;-81
2021/12/18 13:30:51;;;;;;;11.60;4.78;;;8.70;99.90;;;;;;5004587;28;20042;-81
2021/12/18 13:33:26;;;;;;;14.27;5.10;;;8.70;99.90;;;;;;5002666;28;20498;-81
2021/12/18 13:36:00;;;;;;;12.90;4.68;;;8.70;99.90;;;;;;4998313;28;20556;-81
2021/12/18 13:38:45;;;;;;;13.38;4.72;;;8.70;99.90;;;;;;4983039;28;20465;-81
2021/12/18 13:41:13;;;;;;;13.07;3.90;;;8.70;99.90;;;;;;5009325;28;20037;-81
2021/12/18 13:43:40;;;;;;;11.77;3.83;;;8.70;99.90;;;;;;5005137;28;20125;-81
2021/12/18 13:46:12;;;;;;;11.30;3.58;;;8.70;99.90;;;;;;4986911;28;20041;-81
2021/12/18 13:48:43;;;;;;;13.57;4.30;;;8.70;99.90;;;;;;5018287;28;20077;-81
2021/12/18 13:51:13;;;;;;;9.47;3.70;;;8.70;99.90;;;;;;5016739;28;20034;-81
2021/12/18 13:54:00;;;;;;;12.82;4.43;;;8.70;99.90;;;;;;5003735;28;20287;-81